createdAt,value
2023-04-16T00:00:06.768Z,79.80
2023-04-16T00:01:06.729Z,78.40
2023-04-16T00:02:06.710Z,81.00
2023-04-16T00:03:07.364Z,93.80
2023-04-16T00:04:06.797Z,107.30
2023-04-16T00:05:06.713Z,104.10
2023-04-16T00:06:06.924Z,97.40
2023-04-16T00:07:06.652Z,99.80
2023-04-16T00:08:06.543Z,94.00
2023-04-16T00:09:06.639Z,98.80
2023-04-16T00:10:06.592Z,92.30
2023-04-16T00:11:07.648Z,87.70
2023-04-16T00:12:06.600Z,92.20
2023-04-16T00:13:06.587Z,86.20
2023-04-16T00:14:06.606Z,95.20
2023-04-16T00:15:06.561Z,86.90
2023-04-16T00:16:06.529Z,91.70
2023-04-16T00:17:07.719Z,92.90
2023-04-16T00:18:06.503Z,107.30
2023-04-16T00:19:06.495Z,115.20
2023-04-16T00:20:06.608Z,113.10
2023-04-16T00:21:06.606Z,107.80
2023-04-16T00:22:06.660Z,116.00
2023-04-16T00:23:06.517Z,110.60
2023-04-16T00:24:06.585Z,106.10
2023-04-16T00:25:06.497Z,100.50
2023-04-16T00:26:07.552Z,98.80
2023-04-16T00:27:06.494Z,100.60
2023-04-16T00:28:06.519Z,112.20
2023-04-16T00:29:06.438Z,105.50
2023-04-16T00:30:06.476Z,118.90
2023-04-16T00:31:06.534Z,116.80
2023-04-16T00:32:06.455Z,132.10
2023-04-16T00:33:06.438Z,115.00
2023-04-16T00:34:06.371Z,104.50
2023-04-16T00:35:06.369Z,120.30
2023-04-16T00:36:06.459Z,107.90
2023-04-16T00:37:06.400Z,105.20
2023-04-16T00:38:06.471Z,109.90
2023-04-16T00:39:06.562Z,102.30
2023-04-16T00:40:06.394Z,101.00
2023-04-16T00:41:06.427Z,103.90
2023-04-16T00:42:06.463Z,110.10
2023-04-16T00:43:06.444Z,94.80
2023-04-16T00:44:06.368Z,93.80
2023-04-16T00:45:06.426Z,86.60
2023-04-16T00:46:06.388Z,85.10
2023-04-16T00:47:06.323Z,76.70
2023-04-16T00:48:06.360Z,78.60
2023-04-16T00:49:06.396Z,73.50
2023-04-16T00:50:06.248Z,71.80
2023-04-16T00:51:06.217Z,80.00
2023-04-16T00:52:06.288Z,71.40
2023-04-16T00:53:06.203Z,71.80
2023-04-16T00:54:06.237Z,70.10
2023-04-16T00:55:06.281Z,74.40
2023-04-16T00:56:06.228Z,75.70
2023-04-16T00:57:06.197Z,76.40
2023-04-16T00:58:06.292Z,72.20
2023-04-16T00:59:06.252Z,72.10
2023-04-16T01:00:06.376Z,72.60
2023-04-16T01:01:06.319Z,71.70
2023-04-16T01:02:06.381Z,68.20
2023-04-16T01:03:06.406Z,67.20
2023-04-16T01:04:06.388Z,74.90
2023-04-16T01:05:06.198Z,71.30
2023-04-16T01:06:06.376Z,70.10
2023-04-16T01:07:06.171Z,69.70
2023-04-16T01:08:06.124Z,68.80
2023-04-16T01:09:06.190Z,69.60
2023-04-16T01:10:06.175Z,69.30
2023-04-16T01:11:06.573Z,69.40
2023-04-16T01:12:06.149Z,68.90
2023-04-16T01:13:06.123Z,76.60
2023-04-16T01:14:06.071Z,73.20
2023-04-16T02:31:24.408Z,69.40
2023-04-16T02:32:25.480Z,78.50
2023-04-16T02:33:25.461Z,78.20
2023-04-16T02:34:25.519Z,73.90
2023-04-16T02:35:25.469Z,80.30
2023-04-16T02:36:25.496Z,80.40
2023-04-16T02:37:25.435Z,82.50
2023-04-16T02:38:25.556Z,83.10
2023-04-16T02:39:25.517Z,82.90
2023-04-16T02:40:25.492Z,82.50
2023-04-16T02:41:25.462Z,78.10
2023-04-16T02:42:25.509Z,79.90
2023-04-16T02:43:25.446Z,81.60
2023-04-16T02:44:25.465Z,73.70
2023-04-16T02:45:25.461Z,81.30
2023-04-16T02:46:25.928Z,78.60
2023-04-16T02:47:25.531Z,78.70
2023-04-16T02:48:25.519Z,80.50
2023-04-16T02:49:25.452Z,76.10
2023-04-16T02:50:25.489Z,76.00
2023-04-16T02:51:25.452Z,79.80
2023-04-16T02:52:25.463Z,79.80
2023-04-16T02:53:25.406Z,77.30
2023-04-16T02:54:25.386Z,80.10
2023-04-16T02:55:25.368Z,83.60
2023-04-16T02:56:25.329Z,82.00
2023-04-16T02:57:25.368Z,81.70
2023-04-16T02:58:25.346Z,80.70
2023-04-16T02:59:25.254Z,84.50
2023-04-16T03:00:25.281Z,80.20
2023-04-16T03:01:25.321Z,79.40
2023-04-16T03:02:26.257Z,85.80
2023-04-16T03:03:25.272Z,80.80
2023-04-16T03:04:25.266Z,86.70
2023-04-16T03:05:25.230Z,85.20
2023-04-16T03:06:25.234Z,84.40
2023-04-16T03:07:25.206Z,84.40
2023-04-16T03:08:25.225Z,88.30
2023-04-16T03:09:25.249Z,92.50
2023-04-16T03:10:25.188Z,93.30
2023-04-16T03:11:25.322Z,92.40
2023-04-16T03:12:25.341Z,90.40
2023-04-16T03:13:25.312Z,98.80
2023-04-16T03:14:25.249Z,96.00
2023-04-16T03:15:25.361Z,100.20
2023-04-16T03:16:26.223Z,94.30
2023-04-16T03:17:25.367Z,94.10
2023-04-16T03:18:25.193Z,93.10
2023-04-16T03:19:25.220Z,99.50
2023-04-16T03:20:25.245Z,102.30
2023-04-16T03:21:25.193Z,102.60
2023-04-16T03:22:25.088Z,102.90
2023-04-16T03:23:25.109Z,97.20
2023-04-16T03:24:25.181Z,98.10
2023-04-16T03:25:25.104Z,97.50
2023-04-16T03:26:25.118Z,103.30
2023-04-16T03:27:25.080Z,97.00
2023-04-16T03:28:25.104Z,98.60
2023-04-16T03:29:25.143Z,96.80
2023-04-16T03:30:25.155Z,92.70
2023-04-16T03:31:25.645Z,106.10
2023-04-16T03:32:25.205Z,101.90
2023-04-16T03:33:25.108Z,103.50
2023-04-16T03:34:25.176Z,99.10
2023-04-16T03:35:25.096Z,97.40
2023-04-16T03:36:25.157Z,100.30
2023-04-16T03:37:25.092Z,96.60
2023-04-16T03:38:25.160Z,97.90
2023-04-16T03:39:25.058Z,100.10
2023-04-16T03:40:25.043Z,91.50
2023-04-16T03:41:25.047Z,87.60
2023-04-16T03:42:25.094Z,89.80
2023-04-16T03:43:25.042Z,88.80
2023-04-16T03:44:24.969Z,90.50
2023-04-16T03:45:24.947Z,92.90
2023-04-16T03:46:25.035Z,97.30
2023-04-16T03:47:25.041Z,92.90
2023-04-16T03:48:25.061Z,92.10
2023-04-16T03:49:24.989Z,94.10
2023-04-16T03:50:25.005Z,98.10
2023-04-16T03:51:24.973Z,98.80
2023-04-16T03:52:24.966Z,93.20
2023-04-16T03:53:25.024Z,106.20
2023-04-16T03:54:24.951Z,92.20
2023-04-16T03:55:25.065Z,97.90
2023-04-16T03:56:24.949Z,86.90
2023-04-16T03:57:24.999Z,86.70
2023-04-16T03:58:24.966Z,84.80
2023-04-16T03:59:25.049Z,85.00
2023-04-16T04:00:24.824Z,82.20
2023-04-16T04:01:24.853Z,86.10
2023-04-16T04:02:25.068Z,81.10
2023-04-16T04:03:25.041Z,77.80
2023-04-16T04:04:24.999Z,81.40
2023-04-16T04:05:24.820Z,85.00
2023-04-16T04:06:24.818Z,81.20
2023-04-16T04:07:24.838Z,97.10
2023-04-16T04:08:24.797Z,85.20
2023-04-16T04:09:24.808Z,86.90
2023-04-16T04:10:24.802Z,79.30
2023-04-16T04:11:24.718Z,83.30
2023-04-16T04:12:24.839Z,82.80
2023-04-16T04:13:24.813Z,79.40
2023-04-16T04:14:24.834Z,92.10
2023-04-16T04:15:24.879Z,83.70
2023-04-16T04:16:24.918Z,82.50
2023-04-16T04:17:24.879Z,88.60
2023-04-16T04:18:24.863Z,82.10
2023-04-16T04:19:24.792Z,83.00
2023-04-16T04:20:24.849Z,81.00
2023-04-16T04:21:24.788Z,77.50
2023-04-16T04:22:24.829Z,76.70
2023-04-16T04:23:24.768Z,84.30
2023-04-16T04:24:24.679Z,79.80
2023-04-16T04:25:24.722Z,79.10
2023-04-16T04:26:24.756Z,80.30
2023-04-16T04:27:24.740Z,77.80
2023-04-16T04:28:24.738Z,80.50
2023-04-16T04:29:24.706Z,79.90
2023-04-16T04:30:24.675Z,80.50
2023-04-16T04:31:24.696Z,76.60
2023-04-16T04:32:25.165Z,85.60
2023-04-16T04:33:24.671Z,95.00
2023-04-16T04:34:24.685Z,100.60
2023-04-16T04:35:24.676Z,94.80
2023-04-16T04:36:24.685Z,91.90
2023-04-16T04:37:24.745Z,93.00
2023-04-16T04:38:24.639Z,89.40
2023-04-16T04:39:24.582Z,88.50
2023-04-16T04:40:24.561Z,90.00
2023-04-16T04:41:24.752Z,94.70
2023-04-16T04:42:24.561Z,94.60
2023-04-16T04:43:24.559Z,93.00
2023-04-16T04:44:24.524Z,98.20
2023-04-16T04:45:24.549Z,95.30
2023-04-16T04:46:24.604Z,99.60
2023-04-16T04:47:24.618Z,100.80
2023-04-16T04:48:24.649Z,106.10
2023-04-16T04:49:24.569Z,105.60
2023-04-16T04:50:24.566Z,105.40
2023-04-16T04:51:24.659Z,108.90
2023-04-16T04:52:24.538Z,107.40
2023-04-16T04:53:24.527Z,105.40
2023-04-16T04:54:24.560Z,109.00
2023-04-16T04:55:24.510Z,112.30
2023-04-16T04:56:24.506Z,117.70
2023-04-16T04:57:24.416Z,118.50
2023-04-16T04:58:24.559Z,113.80
2023-04-16T04:59:24.532Z,115.20
2023-04-16T05:00:24.518Z,115.40
2023-04-16T05:01:24.519Z,118.80
2023-04-16T05:02:24.571Z,115.40
2023-04-16T05:03:24.464Z,120.40
2023-04-16T05:04:24.377Z,113.50
2023-04-16T05:05:24.515Z,118.50
2023-04-16T05:06:24.371Z,120.50
2023-04-16T05:07:24.376Z,118.90
2023-04-16T05:08:24.332Z,128.60
2023-04-16T05:09:24.504Z,118.60
2023-04-16T05:10:24.426Z,118.80
2023-04-16T05:11:24.401Z,120.30
2023-04-16T05:12:24.419Z,114.90
2023-04-16T05:13:24.445Z,118.70
2023-04-16T05:14:24.367Z,119.70
2023-04-16T05:15:24.353Z,124.00
2023-04-16T05:16:24.414Z,118.00
2023-04-16T05:17:24.391Z,123.70
2023-04-16T05:18:24.367Z,119.30
2023-04-16T05:19:24.337Z,115.30
2023-04-16T05:20:24.331Z,115.50
2023-04-16T05:21:24.409Z,124.90
2023-04-16T05:22:24.314Z,117.40
2023-04-16T05:23:24.356Z,125.80
2023-04-16T05:24:24.345Z,122.80
2023-04-16T05:25:24.362Z,123.50
2023-04-16T05:26:24.290Z,116.90
2023-04-16T05:27:31.548Z,122.40
2023-04-16T05:28:35.254Z,129.40
2023-04-16T05:29:24.192Z,117.90
2023-04-16T05:30:24.220Z,113.70
2023-04-16T05:31:24.195Z,113.00
2023-04-16T05:32:24.509Z,115.30
2023-04-16T05:33:24.185Z,118.60
2023-04-16T05:34:24.174Z,120.10
2023-04-16T05:35:24.119Z,114.20
2023-04-16T05:36:24.203Z,107.10
2023-04-16T05:37:24.216Z,112.20
2023-04-16T05:38:24.234Z,111.90
2023-04-16T05:39:24.195Z,112.10
2023-04-16T05:40:24.190Z,112.80
2023-04-16T05:41:24.220Z,105.70
2023-04-16T05:42:24.174Z,113.20
2023-04-16T05:43:24.222Z,116.30
2023-04-16T05:44:24.283Z,109.50
2023-04-16T05:45:25.572Z,112.60
2023-04-16T05:46:24.240Z,112.50
2023-04-16T05:47:24.164Z,108.60
2023-04-16T05:48:24.246Z,109.50
2023-04-16T05:49:24.197Z,111.90
2023-04-16T05:50:24.191Z,108.30
2023-04-16T05:51:24.088Z,125.00
2023-04-16T05:52:25.150Z,119.10
2023-04-16T05:53:24.109Z,115.70
2023-04-16T05:54:24.116Z,120.80
2023-04-16T05:55:24.125Z,113.30
2023-04-16T05:56:24.058Z,112.50
2023-04-16T05:57:24.115Z,119.00
2023-04-16T05:58:24.081Z,119.10
2023-04-16T05:59:24.038Z,129.50
2023-04-16T06:00:24.075Z,126.10
2023-04-16T06:01:24.067Z,123.30
2023-04-16T06:02:24.047Z,118.40
2023-04-16T06:03:24.063Z,108.20
2023-04-16T06:04:23.990Z,118.20
2023-04-16T06:05:24.024Z,119.00
2023-04-16T06:06:23.919Z,119.40
2023-04-16T06:07:23.923Z,118.60
2023-04-16T06:08:24.012Z,117.00
2023-04-16T06:09:24.151Z,113.50
2023-04-16T06:10:23.993Z,125.50
2023-04-16T06:11:24.062Z,111.30
2023-04-16T06:12:23.940Z,111.70
2023-04-16T06:13:24.066Z,108.80
2023-04-16T06:14:23.999Z,110.50
2023-04-16T06:15:23.926Z,116.40
2023-04-16T06:16:24.128Z,111.30
2023-04-16T06:17:23.987Z,115.00
2023-04-16T06:18:23.905Z,109.50
2023-04-16T06:19:23.935Z,108.60
2023-04-16T06:20:23.905Z,109.00
2023-04-16T06:21:24.015Z,105.60
2023-04-16T06:22:23.888Z,101.80
2023-04-16T06:23:23.855Z,104.50
2023-04-16T06:24:23.822Z,103.50
2023-04-16T06:25:23.796Z,102.80
2023-04-16T06:26:23.760Z,99.70
2023-04-16T06:27:23.864Z,104.30
2023-04-16T06:28:23.785Z,107.60
2023-04-16T06:29:33.575Z,106.70
2023-04-16T06:30:26.610Z,107.20
2023-04-16T06:31:23.789Z,105.90
2023-04-16T06:32:23.990Z,106.10
2023-04-16T06:33:23.865Z,113.10
2023-04-16T06:34:23.946Z,110.10
2023-04-16T06:35:23.752Z,117.70
2023-04-16T06:36:23.869Z,117.60
2023-04-16T06:37:23.899Z,110.70
2023-04-16T06:38:24.095Z,118.30
2023-04-16T06:39:23.783Z,107.50
2023-04-16T06:40:23.785Z,107.50
2023-04-16T06:41:23.746Z,116.80
2023-04-16T06:42:23.741Z,107.50
2023-04-16T06:43:23.773Z,109.90
2023-04-16T06:44:23.757Z,113.50
2023-04-16T06:45:23.710Z,115.90
2023-04-16T06:46:23.761Z,102.50
2023-04-16T06:47:23.724Z,104.60
2023-04-16T06:48:23.627Z,106.50
2023-04-16T06:49:23.664Z,110.10
2023-04-16T06:50:23.604Z,109.00
2023-04-16T06:51:23.629Z,101.00
2023-04-16T06:52:23.698Z,100.20
2023-04-16T06:53:23.587Z,97.20
2023-04-16T06:54:23.780Z,102.30
2023-04-16T06:55:23.763Z,96.90
2023-04-16T06:56:23.642Z,96.20
2023-04-16T06:57:23.785Z,99.20
2023-04-16T06:58:23.626Z,96.40
2023-04-16T06:59:23.854Z,92.50
2023-04-16T07:00:23.659Z,94.80
2023-04-16T07:01:23.656Z,95.90
2023-04-16T07:02:23.716Z,99.40
2023-04-16T07:03:23.761Z,97.70
2023-04-16T07:04:23.718Z,104.30
2023-04-16T07:05:23.660Z,98.00
2023-04-16T07:06:23.630Z,97.90
2023-04-16T07:07:23.558Z,100.10
2023-04-16T07:08:40.614Z,107.90
2023-04-16T07:09:23.551Z,121.90
2023-04-16T07:10:23.628Z,119.80
2023-04-16T07:11:23.518Z,114.00
2023-04-16T07:12:23.485Z,113.50
2023-04-16T07:13:23.493Z,107.00
2023-04-16T07:14:23.575Z,108.70
2023-04-16T07:15:23.441Z,108.80
2023-04-16T07:16:24.465Z,100.40
2023-04-16T07:17:23.439Z,100.70
2023-04-16T07:18:23.447Z,101.30
2023-04-16T07:19:23.474Z,99.50
2023-04-16T07:20:23.595Z,97.70
2023-04-16T07:21:23.518Z,96.70
2023-04-16T07:22:23.523Z,96.00
2023-04-16T07:23:23.472Z,94.90
2023-04-16T07:24:23.490Z,92.50
2023-04-16T07:25:23.437Z,93.50
2023-04-16T07:26:23.522Z,88.40
2023-04-16T07:27:23.561Z,87.10
2023-04-16T07:28:23.412Z,90.20
2023-04-16T07:29:23.456Z,93.70
2023-04-16T07:30:23.463Z,95.40
2023-04-16T07:31:23.480Z,98.60
2023-04-16T07:32:23.610Z,97.40
2023-04-16T07:33:23.447Z,99.10
2023-04-16T07:34:23.408Z,93.30
2023-04-16T07:35:23.448Z,100.90
2023-04-16T07:36:23.375Z,110.90
2023-04-16T07:37:23.428Z,119.40
2023-04-16T07:38:23.894Z,102.00
2023-04-16T07:39:23.487Z,102.60
2023-04-16T07:40:23.246Z,97.70
2023-04-16T07:41:23.270Z,97.40
2023-04-16T07:42:23.241Z,94.60
2023-04-16T07:43:23.414Z,90.40
2023-04-16T07:44:23.278Z,99.80
2023-04-16T07:45:23.492Z,95.80
2023-04-16T07:46:24.869Z,117.50
2023-04-16T07:47:39.103Z,109.10
2023-04-16T07:48:24.283Z,103.80
2023-04-16T07:49:23.231Z,100.30
2023-04-16T07:50:23.305Z,99.80
2023-04-16T07:51:23.286Z,97.50
2023-04-16T07:52:23.259Z,96.00
2023-04-16T07:53:23.290Z,94.30
2023-04-16T07:54:23.282Z,101.00
2023-04-16T07:55:23.241Z,99.20
2023-04-16T07:56:23.277Z,102.70
2023-04-16T07:57:23.246Z,98.60
2023-04-16T07:58:23.273Z,101.60
2023-04-16T07:59:24.383Z,122.80
2023-04-16T08:00:24.217Z,116.60
2023-04-16T08:01:23.310Z,107.30
2023-04-16T08:02:23.200Z,102.00
2023-04-16T08:03:23.555Z,98.30
2023-04-16T08:04:23.613Z,103.60
2023-04-16T08:05:23.233Z,102.90
2023-04-16T08:06:23.215Z,134.90
2023-04-16T08:07:23.170Z,103.40
2023-04-16T08:08:23.213Z,96.80
2023-04-16T08:09:23.207Z,97.70
2023-04-16T08:10:23.361Z,96.90
2023-04-16T08:11:23.120Z,95.50
2023-04-16T08:12:23.108Z,98.10
2023-04-16T08:13:23.155Z,90.80
2023-04-16T08:14:23.155Z,96.00
2023-04-16T08:15:23.056Z,97.90
2023-04-16T08:16:23.124Z,99.80
2023-04-16T08:17:23.019Z,99.40
2023-04-16T08:18:22.983Z,101.00
2023-04-16T08:19:22.935Z,102.70
2023-04-16T08:20:22.983Z,100.80
2023-04-16T08:21:23.089Z,94.00
2023-04-16T08:22:23.139Z,94.00
2023-04-16T08:23:23.268Z,93.30
2023-04-16T08:24:23.047Z,92.90
2023-04-16T08:25:23.113Z,105.90
2023-04-16T08:26:23.190Z,98.00
2023-04-16T08:27:23.065Z,108.20
2023-04-16T08:28:23.126Z,109.10
2023-04-16T08:29:22.995Z,176.00
2023-04-16T08:30:23.036Z,146.20
2023-04-16T08:31:23.044Z,122.90
2023-04-16T08:32:23.564Z,129.90
2023-04-16T08:33:23.003Z,120.50
2023-04-16T08:34:22.940Z,101.00
2023-04-16T08:35:22.931Z,103.40
2023-04-16T08:36:22.971Z,109.30
2023-04-16T08:37:23.043Z,108.50
2023-04-16T08:38:22.924Z,105.60
2023-04-16T08:39:22.969Z,135.40
2023-04-16T08:40:22.980Z,146.20
2023-04-16T08:41:23.119Z,113.00
2023-04-16T08:42:23.006Z,105.40
2023-04-16T08:43:23.309Z,102.50
2023-04-16T08:44:22.938Z,100.60
2023-04-16T08:45:43.636Z,108.20
2023-04-16T08:46:22.865Z,114.10
2023-04-16T08:47:22.885Z,113.70
2023-04-16T08:48:22.807Z,112.10
2023-04-16T08:49:22.810Z,112.30
2023-04-16T08:51:22.944Z,120.60
2023-04-16T08:52:22.820Z,123.80
2023-04-16T08:53:22.895Z,122.90
2023-04-16T08:54:22.853Z,125.00
2023-04-16T08:55:22.858Z,115.80
2023-04-16T08:56:22.794Z,116.10
2023-04-16T08:57:22.771Z,119.90
2023-04-16T08:58:22.904Z,118.20
2023-04-16T08:59:22.847Z,115.90
2023-04-16T09:00:22.787Z,122.80
2023-04-16T09:01:22.801Z,126.00
2023-04-16T09:02:23.124Z,126.30
2023-04-16T09:03:22.804Z,132.40
2023-04-16T09:04:22.810Z,131.00
2023-04-16T09:05:22.831Z,139.20
2023-04-16T09:06:22.817Z,159.70
2023-04-16T09:08:22.633Z,132.80
2023-04-16T09:09:22.711Z,132.70
2023-04-16T09:10:22.745Z,132.50
2023-04-16T09:11:22.593Z,124.30
2023-04-16T09:12:22.780Z,121.80
2023-04-16T09:13:22.610Z,130.30
2023-04-16T09:14:23.035Z,124.30
2023-04-16T09:15:22.824Z,118.70
2023-04-16T09:16:22.871Z,120.40
2023-04-16T09:17:23.021Z,116.20
2023-04-16T09:18:22.736Z,121.40
2023-04-16T09:19:22.634Z,131.80
2023-04-16T09:20:22.669Z,114.50
2023-04-16T09:21:24.036Z,110.00
2023-04-16T09:22:23.686Z,105.40
2023-04-16T09:23:22.616Z,106.50
2023-04-16T09:24:22.656Z,104.10
2023-04-16T09:25:22.590Z,106.20
2023-04-16T09:26:22.772Z,126.30
2023-04-16T09:27:24.724Z,169.70
2023-04-16T09:28:22.711Z,132.80
2023-04-16T09:29:22.559Z,118.60
2023-04-16T09:30:22.687Z,111.80
2023-04-16T09:31:22.537Z,108.30
2023-04-16T09:32:22.568Z,108.50
2023-04-16T09:33:23.055Z,105.90
2023-04-16T09:34:22.481Z,108.20
2023-04-16T09:35:22.546Z,106.50
2023-04-16T09:36:22.542Z,107.20
2023-04-16T09:37:22.493Z,112.10
2023-04-16T09:38:22.426Z,115.20
2023-04-16T09:39:22.487Z,120.20
2023-04-16T09:40:22.579Z,116.00
2023-04-16T09:41:22.474Z,117.60
2023-04-16T09:42:23.563Z,114.00
2023-04-16T09:43:22.572Z,120.90
2023-04-16T09:44:22.436Z,121.00
2023-04-16T09:45:22.533Z,115.70
2023-04-16T09:46:23.675Z,131.70
2023-04-16T09:47:22.530Z,129.10
2023-04-16T09:48:22.850Z,133.30
2023-04-16T09:49:33.524Z,124.60
2023-04-16T09:50:22.458Z,129.70
2023-04-16T09:51:22.575Z,130.80
2023-04-16T09:52:22.314Z,127.10
2023-04-16T09:53:22.584Z,132.20
2023-04-16T09:54:22.400Z,135.90
2023-04-16T09:55:23.345Z,132.50
2023-04-16T09:56:22.401Z,137.50
2023-04-16T09:57:22.506Z,128.10
2023-04-16T09:58:22.475Z,126.60
2023-04-16T09:59:22.556Z,122.50
2023-04-16T10:00:23.058Z,121.70
2023-04-16T10:01:22.909Z,121.20
2023-04-16T10:02:22.419Z,116.70
2023-04-16T10:03:22.458Z,120.70
2023-04-16T10:04:22.829Z,123.70
2023-04-16T10:05:22.397Z,125.40
2023-04-16T10:06:22.573Z,219.10
2023-04-16T10:07:23.204Z,157.30
2023-04-16T10:08:22.511Z,128.70
2023-04-16T10:09:22.667Z,121.90
2023-04-16T10:10:22.545Z,116.00
2023-04-16T10:11:22.836Z,120.50
2023-04-16T10:12:22.590Z,118.80
2023-04-16T10:13:22.370Z,113.30
2023-04-16T10:14:22.367Z,110.30
2023-04-16T10:15:23.020Z,103.70
2023-04-16T10:16:22.304Z,98.80
2023-04-16T10:17:22.682Z,100.60
2023-04-16T10:18:22.397Z,99.40
2023-04-16T10:19:22.323Z,101.10
2023-04-16T10:20:22.626Z,103.50
2023-04-16T10:21:22.530Z,101.90
2023-04-16T10:22:22.448Z,95.30
2023-04-16T10:23:22.259Z,93.80
2023-04-16T10:24:22.267Z,90.10
2023-04-16T10:25:22.269Z,89.30
2023-04-16T10:26:22.178Z,91.70
2023-04-16T10:27:22.066Z,90.80
2023-04-16T10:28:22.358Z,93.90
2023-04-16T10:29:22.204Z,90.70
2023-04-16T10:30:22.293Z,87.80
2023-04-16T10:31:22.423Z,85.40
2023-04-16T10:32:22.495Z,83.20
2023-04-16T10:33:22.520Z,81.80
2023-04-16T10:34:22.099Z,83.70
2023-04-16T10:35:22.214Z,85.60
2023-04-16T10:36:22.079Z,73.40
2023-04-16T10:37:23.378Z,78.30
2023-04-16T10:38:22.193Z,79.30
2023-04-16T10:39:22.203Z,78.80
2023-04-16T10:40:22.347Z,81.40
2023-04-16T10:41:22.383Z,94.50
2023-04-16T10:42:22.271Z,112.80
2023-04-16T10:43:22.601Z,115.10
2023-04-16T10:44:21.955Z,110.10
2023-04-16T10:45:22.732Z,132.60
2023-04-16T10:46:22.623Z,104.40
2023-04-16T10:47:22.229Z,80.20
2023-04-16T10:48:22.589Z,76.80
2023-04-16T10:49:22.446Z,71.00
2023-04-16T10:50:22.143Z,70.30
2023-04-16T10:51:22.157Z,81.50
2023-04-16T10:52:22.046Z,71.70
2023-04-16T10:53:22.068Z,84.10
2023-04-16T10:54:22.238Z,75.70
2023-04-16T10:55:22.212Z,87.70
2023-04-16T10:56:22.079Z,99.50
2023-04-16T10:57:22.509Z,113.90
2023-04-16T10:58:22.778Z,119.50
2023-04-16T10:59:21.864Z,186.20
2023-04-16T11:00:22.242Z,158.80
2023-04-16T11:01:22.078Z,139.90
2023-04-16T11:02:22.237Z,114.80
2023-04-16T11:03:22.271Z,128.40
2023-04-16T11:04:22.672Z,127.90
2023-04-16T11:05:22.578Z,114.30
2023-04-16T11:06:21.870Z,117.50
2023-04-16T11:07:21.952Z,109.00
2023-04-16T11:08:21.907Z,95.10
2023-04-16T11:09:22.236Z,146.10
2023-04-16T11:10:22.047Z,144.50
2023-04-16T11:11:22.461Z,126.80
2023-04-16T11:12:21.915Z,125.60
2023-04-16T11:13:21.878Z,134.90
2023-04-16T11:14:22.102Z,137.10
2023-04-16T11:15:21.990Z,177.40
2023-04-16T11:16:22.135Z,182.40
2023-04-16T11:17:21.979Z,174.60
2023-04-16T11:18:22.344Z,172.90
2023-04-16T11:19:22.213Z,158.10
2023-04-16T11:20:22.530Z,121.70
2023-04-16T11:21:22.326Z,104.40
2023-04-16T11:22:22.461Z,110.60
2023-04-16T11:23:22.361Z,121.20
2023-04-16T11:24:21.994Z,137.00
2023-04-16T11:25:22.306Z,151.50
2023-04-16T11:26:22.204Z,145.70
2023-04-16T11:27:22.282Z,141.10
2023-04-16T11:28:22.283Z,156.70
2023-04-16T11:29:22.331Z,167.70
2023-04-16T11:30:22.199Z,153.90
2023-04-16T11:31:22.130Z,151.50
2023-04-16T11:32:22.257Z,150.10
2023-04-16T11:33:21.860Z,138.60
2023-04-16T11:34:22.084Z,145.90
2023-04-16T11:35:22.429Z,161.50
2023-04-16T11:36:21.975Z,164.70
2023-04-16T11:37:22.182Z,178.50
2023-04-16T11:38:21.915Z,154.90
2023-04-16T11:39:22.259Z,153.80
2023-04-16T11:40:21.786Z,148.60
2023-04-16T11:41:21.905Z,153.70
2023-04-16T11:42:22.162Z,171.40
2023-04-16T11:43:21.886Z,171.80
2023-04-16T11:44:21.840Z,151.60
2023-04-16T11:45:21.955Z,151.90
2023-04-16T11:46:27.755Z,147.60
2023-04-16T11:47:24.285Z,133.60
2023-04-16T11:48:22.225Z,153.90
2023-04-16T11:49:22.133Z,140.50
2023-04-16T11:50:22.057Z,147.00
2023-04-16T11:51:22.149Z,128.60
2023-04-16T11:52:22.082Z,129.10
2023-04-16T11:53:22.067Z,130.50
2023-04-16T11:54:22.121Z,121.80
2023-04-16T11:55:21.769Z,157.40
2023-04-16T11:56:21.595Z,129.20
2023-04-16T11:57:22.323Z,131.30
2023-04-16T11:58:22.127Z,148.60
2023-04-16T11:59:21.927Z,169.50
2023-04-16T12:00:24.573Z,151.30
2023-04-16T12:01:21.930Z,172.50
2023-04-16T12:02:21.952Z,141.10
2023-04-16T12:03:22.220Z,149.60
2023-04-16T12:04:22.257Z,162.70
2023-04-16T12:05:21.924Z,209.00
2023-04-16T12:06:23.289Z,203.10
2023-04-16T12:07:22.126Z,205.10
2023-04-16T12:08:21.913Z,196.40
2023-04-16T12:09:22.134Z,195.50
2023-04-16T12:10:21.811Z,171.10
2023-04-16T12:11:21.971Z,204.10
2023-04-16T12:12:21.759Z,186.50
2023-04-16T12:13:21.936Z,177.70
2023-04-16T12:14:22.001Z,162.30
2023-04-16T12:15:22.387Z,158.90
2023-04-16T12:16:21.773Z,158.50
2023-04-16T12:17:22.037Z,163.70
2023-04-16T12:18:21.751Z,169.40
2023-04-16T12:19:21.829Z,152.40
2023-04-16T12:20:22.055Z,172.80
2023-04-16T12:21:21.652Z,174.80
2023-04-16T12:22:21.566Z,189.00
2023-04-16T12:23:21.930Z,204.60
2023-04-16T12:24:21.729Z,212.70
2023-04-16T12:25:21.777Z,202.20
2023-04-16T12:26:22.146Z,165.10
2023-04-16T12:27:21.781Z,167.40
2023-04-16T12:28:21.486Z,185.00
2023-04-16T12:29:21.767Z,167.90
2023-04-16T12:30:21.385Z,172.60
2023-04-16T12:31:22.158Z,179.80
2023-04-16T12:32:21.978Z,181.70
2023-04-16T12:33:21.676Z,160.40
2023-04-16T12:34:21.498Z,194.30
2023-04-16T12:35:22.792Z,171.30
2023-04-16T12:36:21.754Z,176.30
2023-04-16T12:37:30.437Z,162.70
2023-04-16T12:38:24.295Z,199.30
2023-04-16T12:39:21.557Z,195.50
2023-04-16T12:40:21.940Z,189.10
2023-04-16T12:41:21.894Z,190.70
2023-04-16T12:42:22.022Z,166.10
2023-04-16T12:43:21.917Z,216.20
2023-04-16T12:44:21.722Z,212.00
2023-04-16T12:45:21.624Z,193.80
2023-04-16T12:46:21.290Z,212.20
2023-04-16T12:47:21.846Z,190.50
2023-04-16T12:48:21.612Z,204.20
2023-04-16T12:49:22.602Z,198.80
2023-04-16T12:50:21.654Z,230.00
2023-04-16T12:51:21.805Z,197.30
2023-04-16T12:52:23.786Z,204.50
2023-04-16T12:53:23.011Z,200.50
2023-04-16T12:54:21.729Z,204.00
2023-04-16T12:55:21.704Z,194.00
2023-04-16T12:56:21.670Z,271.60
2023-04-16T12:57:21.251Z,212.90
2023-04-16T12:58:21.244Z,254.70
2023-04-16T12:59:21.407Z,226.30
2023-04-16T13:00:21.520Z,234.70
2023-04-16T13:01:21.299Z,221.70
2023-04-16T13:02:21.118Z,257.60
2023-04-16T13:03:21.367Z,260.10
2023-04-16T13:04:22.724Z,274.10
2023-04-16T13:05:21.367Z,290.50
2023-04-16T13:06:21.509Z,335.50
2023-04-16T13:07:21.383Z,292.00
2023-04-16T13:08:21.100Z,267.50
2023-04-16T13:09:21.149Z,264.40
2023-04-16T13:10:21.026Z,284.70
2023-04-16T13:11:20.999Z,284.20
2023-04-16T13:12:21.103Z,297.40
2023-04-16T13:13:21.247Z,288.10
2023-04-16T13:14:21.772Z,312.30
2023-04-16T13:15:21.221Z,296.80
2023-04-16T13:16:21.477Z,329.70
2023-04-16T13:17:21.343Z,302.90
2023-04-16T13:18:21.127Z,326.10
2023-04-16T13:19:20.939Z,352.10
2023-04-16T13:20:23.179Z,320.00
2023-04-16T13:21:21.468Z,339.40
2023-04-16T13:22:20.909Z,329.90
2023-04-16T13:23:20.953Z,323.00
2023-04-16T13:24:21.044Z,430.10
2023-04-16T13:25:21.336Z,362.30
2023-04-16T13:26:20.925Z,310.90
2023-04-16T13:27:20.900Z,357.40
2023-04-16T13:28:20.901Z,348.30
2023-04-16T13:29:21.030Z,477.50
2023-04-16T13:30:20.779Z,363.10
2023-04-16T13:31:21.004Z,370.20
2023-04-16T13:32:20.857Z,402.50
2023-04-16T13:33:20.911Z,394.50
2023-04-16T13:34:21.002Z,404.40
2023-04-16T13:35:20.911Z,367.40
2023-04-16T13:36:20.854Z,376.80
2023-04-16T13:37:20.847Z,362.50
2023-04-16T13:38:21.064Z,372.70
2023-04-16T14:26:40.767Z,288.60
2023-04-16T14:27:42.652Z,210.10
2023-04-16T14:28:42.624Z,179.50
2023-04-16T14:29:43.082Z,184.90
2023-04-16T14:34:10.991Z,313.50
2023-04-16T14:35:12.017Z,166.80
2023-04-16T14:36:11.701Z,157.60
2023-04-16T14:37:11.537Z,240.10
2023-04-16T14:38:11.660Z,205.30
2023-04-16T14:39:12.041Z,164.50
2023-04-16T14:40:11.938Z,152.40
2023-04-16T14:41:45.206Z,149.60
2023-04-16T14:42:11.519Z,277.10
2023-04-16T14:43:11.548Z,144.80
2023-04-16T14:44:11.581Z,142.20
2023-04-16T14:45:12.393Z,144.30